Tiempo atmosférico en la estación meteorológica de Caravaca de La Cruz, Murcia (643 m.)



Fecha
DESCASC
Temp. máxima en grados centígrados (hora)
DESCASC
Temp. mínima en grados centígrados (hora)
DESCASC
Temp. media en grados centígrados
DESCASC
Racha de viento máxima en m/sg (hora)
DESCASC
Velocidad máxima media en intervalos de 10 minutos(hora)
DESCASC
Precipitaciones diarias en mm
DESCASC
Precipitaciones de 00:00 a 06:00 en mm
DESCASC
Precipitaciones de 06:00 a 12:00 en mm
DESCASC
Precipitaciones de 12:00 a 18:00 en mm
DESCASC
Precipitaciones de 18:00 a 24:00 en mm
DESCASC
22-04-2019 16.5 (19:20) 8.2 (01:00) 12.3 12.22 (01:40) 5.28 (16:30) 1.2 1 0.2 0 0
21-04-2019 12 (14:50) 8.6 (04:30) 10.3 12.78 (23:40) 4.72 (23:40) 6.2 0.6 0.2 2 3.4
20-04-2019 10.5 (05:20) 8.4 (00:00) 9.4 -- (--) -- (--) 70.6 22 27 17.2 4.4
19-04-2019 12.4 (16:10) 8.4 (23:59) 10.4 5.83 (17:10) 3.06 (17:10) 16.4 2 8.2 4.4 1.8
18-04-2019 14.3 (11:40) 8 (00:00) 11.2 10.28 (13:40) 4.17 (10:30) 4 0 0 4 0
17-04-2019 20.5 (15:50) 9.5 (00:00) 15 7.22 (17:20) 3.89 (15:10) 0 0 0 0 0
16-04-2019 25 (17:10) 8.7 (00:00) 16.8 10.56 (17:20) 5.28 (17:20) 0 0 0 0 0
15-04-2019 25.5 (16:10) 11.3 (00:00) 18.4 -- (--) -- (--) 0 0 0 0 0
14-04-2019 27.3 (16:00) 8.9 (00:00) 18.1 8.06 (12:30) 4.72 (06:20) 0 0 0 0 0
13-04-2019 24 (16:10) 8.4 (00:00) 16.2 8.33 (12:40) 4.72 (11:50) 0 0 0 0 0
12-04-2019 21.5 (15:40) 6 (00:00) 13.8 8.61 (11:30) 4.17 (09:10) 0 0 0 0 0
11-04-2019 19.5 (15:30) 5.1 (00:00) 12.3 8.61 (13:10) 4.72 (12:30) 0 0 0 0 0
10-04-2019 16.8 (17:40) 4.7 (00:00) 10.7 -- (--) -- (--) 1.6 0 0 0 1.6
09-04-2019 18 (14:30) 4.8 (00:00) 11.4 11.94 (18:30) 5.83 (14:00) 0 0 0 0 0
08-04-2019 19 (15:40) 9.1 (00:00) 14.1 10 (18:00) 5.56 (18:00) 0 0 0 0 0
07-04-2019 16.3 (16:20) 4.9 (00:00) 10.6 15.28 (00:50) 7.5 (01:00) 0.6 0.2 0.4 0 0
06-04-2019 15.3 (13:10) 2 (00:00) 8.7 14.44 (16:10) 7.22 (16:00) 0 0 0 0 0
05-04-2019 16.7 (12:40) 5.2 (00:00) 11 13.89 (23:00) 6.67 (13:40) 2.6 0 0 2.4 0.2
04-04-2019 17.2 (17:00) 2.3 (00:00) 9.8 9.72 (19:50) 4.44 (19:40) 0 0 0 0 0
03-04-2019 22.7 (16:40) 6 (00:00) 14.4 11.11 (17:30) 6.39 (16:50) 0.2 0 0 0.2 0
02-04-2019 18.7 (17:30) 6.5 (00:00) 12.6 6.11 (13:40) 3.33 (06:40) 0.6 0.2 0 0.4 0
01-04-2019 18.6 (15:50) 9.3 (00:00) 14 7.5 (17:10) 3.89 (17:10) 12 0.2 0.2 0 11.6
31-03-2019 10.6 (17:10) 6.5 (00:00) 8.6 7.78 (15:20) 3.89 (15:30) 8.6 0.6 5 2 1
30-03-2019 17 (15:30) 3 (00:00) 10 7.5 (15:50) 4.17 (16:40) 0 0 0 0 0
29-03-2019 15.7 (14:30) -0.7 (-00:0) 7.5 8.33 (14:00) 5 (12:30) 0 0 0 0 0
28-03-2019 17 (13:50) -1.2 (-00:0) 7.9 11.39 (14:30) 4.72 (13:40) 0 0 0 0 0
27-03-2019 16.7 (15:40) 0.2 (00:00) 8.5 8.61 (13:10) 4.72 (13:10) 0 0 0 0 0
26-03-2019 18.7 (13:30) 2 (00:00) 10.4 10.56 (16:50) 4.72 (16:50) 0 0 0 0 0
25-03-2019 20.8 (14:30) 3 (00:00) 11.9 7.5 (14:30) 3.33 (13:50) 0 0 0 0 0

Gráficas

Temp. máximas Temp. mínimas Temp. medias Precipitaciones Rachas de viento máximas Velocidades máximas media en intervalos de 10 minutos

Datos horarios

Fecha y hora oficial Temperatura (ºC) Velocidad del viento (km/h) Dirección del viento Racha (km/h) Dirección de racha Precipitación (mm) Presión (hPa) Tendencia (hPa) Humedad (%)
2019-04-23 23:00:00 9.3 15 Oeste 30 Sudoeste 0 930.9 3.4 51
2019-04-23 22:00:00 9.1 14 Oeste 30 Oeste 0 929.8 2.5 53
2019-04-23 21:00:00 11.1 14 Oeste 33 Oeste 0 929 2.1 48
2019-04-23 20:00:00 13.2 11 Sudoeste 28 Sudoeste 0 927.5 0.8 50
2019-04-23 19:00:00 13.5 16 Sudoeste -- -- 0 927.3 0.3 45
2019-04-23 18:00:00 14.4 -- -- -- -- 0 926.9 -0.1 44
2019-04-23 17:00:00 14.7 -- -- -- -- 0 926.7 -0.4 43
2019-04-23 16:00:00 13.2 14 Sudoeste 37 Sudoeste 0 927 -0.1 58
2019-04-23 15:00:00 13.1 20 Sudoeste -- -- 0 927 0.4 59
2019-04-23 14:00:00 13.3 -- -- -- -- 0.2 927.1 0.7 62
2019-04-23 13:00:00 13.6 -- -- -- -- 0 927.1 0.9 59
2019-04-23 12:00:00 15.5 22 Oeste 43 Oeste 0 926.6 0.4 51
2019-04-23 11:00:00 13.7 9 Sudoeste 24 Sudoeste 0 926.4 0.1 63
2019-04-23 10:00:00 12.4 11 Sur 17 Sur 0 926.2 0.1 65
2019-04-23 09:00:00 11.1 7 Oeste 18 Oeste 0 926.2 -0.1 72
2019-04-23 08:00:00 10.1 8 Sudoeste 14 Oeste 0 926.3 -0.1 74
2019-04-23 07:00:00 10.1 8 Oeste 15 Sudoeste 0 926.1 -0.5 72
2019-04-23 06:00:00 9.8 9 Sudoeste 17 Sudoeste 0 926.3 -1 74
2019-04-23 05:00:00 8 3 Sudoeste 10 Sur 0 926.4 -1.3 83
2019-04-23 04:00:00 9 7 Sudoeste 14 Sudoeste 0 926.6 -1.2 79
2019-04-23 03:00:00 10.4 5 Oeste 18 Sur 0 927.3 -0.8 73
2019-04-23 02:00:00 9.2 4 Noroeste 13 Oeste 0 927.7 -0.8 81
2019-04-23 01:00:00 10.3 9 Oeste 18 Sudoeste 0 927.8 -0.4 74
2019-04-23 00:00:00 11.1 9 Sudoeste 14 Sudoeste 0 928.1 0 71
2019-04-22 23:00:00 11.6 4 Sudoeste 9 Sur 0 928.5 0.8 72
2019-04-22 22:00:00 12.7 7 Sudoeste 13 Oeste 0 928.2 0.7 64
2019-04-22 21:00:00 14.2 6 Oeste 17 Noroeste 0 928.1 0.3 55
2019-04-22 20:00:00 15.5 5 Noroeste 18 Oeste 0 927.7 -0.2 51
2019-04-22 19:00:00 16.4 10 Oeste 19 Oeste 0 927.5 -0.7 48
2019-04-22 18:00:00 15.5 9 Oeste 28 Oeste 0 927.8 -0.8 51
2019-04-22 17:00:00 15.4 15 Sudoeste 31 Oeste 0 927.9 -0.8 57
2019-04-22 16:00:00 14.7 9 Oeste 23 Oeste 0 928.2 -0.8 57
2019-04-22 15:00:00 14.3 8 Noroeste 26 Noroeste 0 928.6 -0.6 56
2019-04-22 14:00:00 14.7 9 Noroeste 19 Oeste 0 928.7 -0.5 56
2019-04-22 13:00:00 14.6 4 Sur 11 Este 0 929 -0.5 55
2019-04-22 12:00:00 12.6 3 Sur 18 Noroeste 0 929.2 0 63
2019-04-22 11:00:00 10.9 7 Norte 16 Noroeste 0 929.2 0 71
2019-04-22 10:00:00 10.3 4 Norte 17 Norte 0 929.5 0.5 75
2019-04-22 09:00:00 9.6 8 Noroeste 20 Noroeste 0 929.2 0 78
2019-04-22 08:00:00 8.9 10 Norte 26 Noroeste 0.2 929.2 -0.6 83
2019-04-22 07:00:00 9.2 10 Norte 24 Norte 0 929 -1.2 80
2019-04-22 06:00:00 9.2 9 Norte 28 Norte 0.2 929.2 -1.6 80
2019-04-22 05:00:00 8.8 9 Norte 33 Norte 0 929.8 -1.8 82
2019-04-22 04:00:00 8.3 14 Norte 33 Norte 0 930.2 -1.9 84
2019-04-22 03:00:00 8.5 14 Norte 34 Norte 0.2 930.8 -2 81
2019-04-22 02:00:00 8.3 13 Norte 44 Norte 0 931.6 -1.2 82
2019-04-22 01:00:00 8.3 15 Norte 35 Norte 0.6 932.1 -0.9 83
2019-04-22 00:00:00 8.8 14 Norte 46 Norte 0.4 932.8 -0.3 81
2019-04-21 23:00:00 8.9 15 Norte 34 Norte 0.4 932.8 -0.3 84
2019-04-21 22:00:00 8.9 12 Norte 35 Norte 0.2 933 -0.2 85
2019-04-21 21:00:00 9 14 Norte 31 Norte 1 933.1 -0.3 86
2019-04-21 20:00:00 9.4 9 Norte 32 Norte 0.8 933.1 -0.4 86
2019-04-21 19:00:00 9.4 10 Norte 26 Norte 0.6 933.2 -0.5 86
2019-04-21 18:00:00 9.4 9 Norte 26 Norte 1.2 933.4 -0.4 86
2019-04-21 17:00:00 9.9 11 Norte 30 Norte 0.6 933.5 -0.8 84
2019-04-21 16:00:00 10.3 13 Norte 30 Norte 0.2 933.7 -1.6 82
2019-04-21 15:00:00 11.5 12 Norte 28 Norte 0 933.8 -1.5 71
2019-04-21 14:00:00 11.2 12 Norte 30 Norte 0 934.3 -1.3 74
2019-04-21 13:00:00 10 9 Norte 30 Norte 0 935.3 -0.7 76
2019-04-21 12:00:00 9.7 10 Norte 25 Norte 0 935.3 -0.7 77
2019-04-21 11:00:00 9.3 10 Norte 26 Norte 0.2 935.6 -0.7 80
2019-04-21 10:00:00 9.1 7 Nordeste 21 Norte 0 936 -0.1 79
2019-04-21 09:00:00 9 8 Norte 22 Norte 0 936 -0.7 79
2019-04-21 08:00:00 8.8 9 Norte 27 Nordeste 0 936.3 -1.2 79
2019-04-21 07:00:00 8.8 9 Norte 26 Norte 0 936.1 -1.7 80
2019-04-21 06:00:00 8.8 12 Norte 28 Norte 0 936.7 -1.7 81
2019-04-21 05:00:00 8.8 10 Norte 32 Norte 0 937.5 -1.7 83
2019-04-21 04:00:00 8.8 13 Norte 30 Norte 0 937.8 -2 84
2019-04-21 03:00:00 8.7 10 Norte 30 Norte 0 938.4 -1.8 87
2019-04-21 02:00:00 8.9 11 Norte 26 Norte 0.2 939.2 -1.3 87
2019-04-21 01:00:00 8.9 10 Norte 31 Norte 0.4 939.8 -0.7 89
2019-04-21 00:00:00 9.3 13 Norte 37 Nordeste 0.2 940.2 0 87
2019-04-20 23:00:00 9.4 14 Norte 32 Norte 0.4 940.5 0.6 89
2019-04-20 22:00:00 9.2 11 Norte 27 Nordeste 0.8 940.5 1 90
2019-04-20 21:00:00 9.3 11 Nordeste 25 Nordeste 1.4 940.2 0.4 89
2019-04-20 20:00:00 9.4 10 Norte 31 Norte 1 939.9 0.3 89
2019-04-20 19:00:00 9.8 12 Norte 32 Norte 0.6 939.5 0 89
2019-04-20 18:00:00 10 10 Nordeste 24 Nordeste 2.2 939.8 0.4 91
2019-04-20 17:00:00 10.1 14 Nordeste 40 Nordeste 2.2 939.6 0.3 90
2019-04-20 16:00:00 10.1 18 Nordeste 36 Norte 2.8 939.5 0.4 91
2019-04-20 15:00:00 10.1 14 Nordeste 30 Nordeste 2.2 939.4 0.5 91
2019-04-20 14:00:00 10.2 13 Nordeste 31 Nordeste 3.4 939.3 0.9 92
2019-04-20 13:00:00 10.1 10 Nordeste 39 Nordeste 4.4 939.1 1 92
2019-04-20 12:00:00 10 13 Nordeste 36 Norte 5.2 938.9 0.8 92
2019-04-20 11:00:00 10 14 Norte 30 Nordeste 4.4 938.4 0.7 92
2019-04-20 10:00:00 10 13 Nordeste 35 Norte 3.8 938.1 1.3 92
2019-04-20 09:00:00 10.1 14 Nordeste 40 Norte 3.6 938.1 1.5 92
2019-04-20 08:00:00 10 17 Nordeste 38 Nordeste 5.6 937.7 1.1 93
2019-04-20 07:00:00 10 -- -- -- -- 4.4 936.8 -0.9 92
2019-04-20 06:00:00 10.1 -- -- -- -- 3.6 936.6 -2.4 90
2019-04-20 05:00:00 10.3 14 Norte 32 Noroeste 3.6 936.6 -3.5 86
2019-04-20 04:00:00 10.1 12 Norte 32 Norte 5 937.7 -3.7 88
2019-04-20 03:00:00 10.2 9 Norte 28 Norte 4.8 939 -3.2 89
2019-04-20 02:00:00 9.8 5 Nordeste 17 Noroeste 4.4 940.1 -2.2 92
2019-04-20 01:00:00 8.4 3 Sudoeste 11 Sudoeste 0.6 941.4 -0.9 91
2019-04-20 00:00:00 8.4 4 Este 12 Nordeste 1.4 942.2 0.6 90
2019-04-19 23:00:00 8.7 3 Este 18 Este 0.4 942.3 0.7 90
2019-04-19 22:00:00 9 10 Nordeste 18 Nordeste 0 942.3 1.3 89
2019-04-19 21:00:00 9.1 6 Norte 17 Nordeste 0 941.6 0.9 89
2019-04-19 20:00:00 9.7 6 Nordeste 19 Nordeste 0 941.6 1.4 89
2019-04-19 19:00:00 10.3 10 Nordeste 18 Nordeste 0 941 0.6 88
2019-04-19 18:00:00 10 5 Nordeste 21 Nordeste 0.4 940.7 0.6 88
2019-04-19 17:00:00 10.9 8 Nordeste 17 Nordeste 0 940.2 -0.8 84
2019-04-19 16:00:00 12.3 5 Sur 13 Sur 0 940.4 -0.9 79
2019-04-19 15:00:00 11 6 Sur 12 Sur 0 940.1 -1.3 87
2019-04-19 14:00:00 10.3 3 Sudoeste 13 Este 0.6 941 0 89
2019-04-19 13:00:00 9.9 5 Nordeste 14 Nordeste 3.4 941.3 0.4 90
2019-04-19 12:00:00 10.1 4 Sudeste 14 Nordeste 0.2 941.4 0.9 90
2019-04-19 11:00:00 9.5 8 Nordeste 14 Este 0.4 941 1.2 92
2019-04-19 10:00:00 9.3 3 Sudeste 6 Este 1.6 940.9 1.5 92
2019-04-19 09:00:00 9.1 2 Nordeste 4 Sudeste 2.4 940.5 1 92
2019-04-19 08:00:00 9 2 Noroeste 9 Sudoeste 1.4 939.8 0.2 92
2019-04-19 07:00:00 8.9 4 Oeste 8 Oeste 2.2 939.4 0 92
2019-04-19 06:00:00 9 4 Sudoeste 6 Sudoeste 1.8 939.5 -0.3 92
2019-04-19 05:00:00 9 2 Sudeste 5 Sur 0.2 939.6 -0.3 92
2019-04-19 04:00:00 9 3 Sudoeste 7 Sur 0 939.4 -0.1 92
2019-04-19 03:00:00 9.1 2 Sudeste 5 Sudoeste 0 939.8 0.1 92
2019-04-19 02:00:00 9.1 2 Oeste 8 Sudoeste 0 939.9 0.4 92
2019-04-19 01:00:00 8.8 3 Oeste 5 Oeste 0 939.5 0.9 92
2019-04-19 00:00:00 9.1 2 Oeste 8 Nordeste 0 939.7 1.5 91
2019-04-18 23:00:00 9 5 Nordeste 9 Nordeste 0 939.5 2 91
2019-04-18 22:00:00 8.4 4 Noroeste 8 Sudoeste 0 938.6 1.8 90
2019-04-18 21:00:00 9.6 5 Sudoeste 14 Nordeste 0 938.2 1 88
2019-04-18 20:00:00 10.7 4 Nordeste 13 Este 0 937.5 0.4 85
2019-04-18 19:00:00 12.1 6 Este 13 Este 0 936.8 -1.3 76
2019-04-18 18:00:00 11.5 5 Sudoeste 17 Sudoeste 0 937.2 -1.8 82
2019-04-18 17:00:00 10.6 11 Oeste 18 Sudoeste 0.2 937.1 -1.4 83
2019-04-18 16:00:00 10.9 5 Sudoeste 12 Oeste 0.6 938.1 -0.5 86
2019-04-18 15:00:00 9.3 9 Sudoeste 19 Sudoeste 2.6 939 0.1 88
2019-04-18 14:00:00 9.3 9 Noroeste 37 Noroeste 0.6 938.5 -0.2 80
2019-04-18 13:00:00 13.5 8 Norte 20 Nordeste 0 938.6 -0.5 63
2019-04-18 12:00:00 13.9 10 Nordeste 26 Nordeste 0 938.9 -0.1 67
2019-04-18 11:00:00 13.9 13 Este 27 Nordeste 0 938.7 0 63
2019-04-18 10:00:00 13.2 7 Este 16 Nordeste 0 939.1 0.9 66
2019-04-18 09:00:00 10.1 6 Sudoeste 11 Sudoeste 0 939 0.6 84
2019-04-18 08:00:00 8 0 Calma 7 Noroeste 0 938.7 0 88
2019-04-18 07:00:00 8.7 4 Sudoeste 6 Noroeste 0 938.2 -1.8 87
2019-04-18 06:00:00 9 3 Sudoeste 8 Sudeste 0 938.4 -1.7 85
2019-04-18 05:00:00 10.3 8 Sudeste 13 Sudeste 0 938.7 -2.2 81
2019-04-18 04:00:00 11.1 6 Sudeste 16 Nordeste 0 940 -1.4 76
2019-04-18 03:00:00 11 2 Oeste 11 Sudeste 0 940.1 -1.8 74
2019-04-18 02:00:00 10.9 5 Sudeste 10 Sudoeste 0 940.9 -0.6 74
2019-04-18 01:00:00 11.2 4 Oeste 7 Nordeste 0 941.4 1.2 74
2019-04-18 00:00:00 11.5 3 Norte 12 Oeste 0 941.9 2.5 76
2019-04-17 23:00:00 11 4 Noroeste 15 Nordeste 0 941.5 2.3 79
2019-04-17 22:00:00 12.3 7 Nordeste 15 Nordeste 0 940.2 0.9 73
2019-04-17 21:00:00 13.3 8 Nordeste 19 Este 0 939.4 0.3 65
2019-04-17 20:00:00 15 8 Nordeste 24 Nordeste 0 939.2 -0.1 66
2019-04-17 19:00:00 16.3 10 Nordeste 23 Este 0 939.3 -0.9 57
2019-04-17 18:00:00 17.9 12 Nordeste 26 Este 0 939.1 -1.6 51
2019-04-17 17:00:00 19.6 10 Este 24 Nordeste 0 939.3 -2 47
2019-04-17 16:00:00 19.9 13 Este 22 Nordeste 0 940.2 -2 48
2019-04-17 15:00:00 19.7 12 Nordeste 23 Nordeste 0 940.7 -2.1 49
2019-04-17 14:00:00 19.6 10 Este 19 Nordeste 0 941.3 -1.6 49
2019-04-17 13:00:00 18.3 10 Este 17 Este 0 942.2 -1 52
2019-04-17 12:00:00 17 7 Este 15 Este 0 942.8 -0.7 56
2019-04-17 11:00:00 14.9 7 Este 14 Nordeste 0 942.9 -0.4 63
2019-04-17 10:00:00 13.7 3 Sudeste 9 Este 0 943.2 0.1 66
2019-04-17 09:00:00 12.2 5 Sudoeste 9 Sudoeste 0 943.5 0.3 72
2019-04-17 08:00:00 11.2 5 Sudoeste 13 Oeste 0 943.3 -0.2 76
2019-04-17 07:00:00 11.1 6 Oeste 12 Oeste 0 943.1 -0.9 79
2019-04-17 06:00:00 11.2 2 Sur 5 Sur 0 943.2 -1.1 81
2019-04-17 05:00:00 11.1 0 Calma 8 Nordeste 0 943.5 -1.2 82
2019-04-17 04:00:00 11 3 Nordeste 8 Nordeste 0 944 -0.8 85
2019-04-17 03:00:00 10.1 3 Norte 9 Norte 0 944.3 -0.6 89
2019-04-17 02:00:00 10.1 5 Norte 10 Norte 0 944.7 -0.1 88
2019-04-17 01:00:00 10.1 3 Norte 8 Norte 0 944.8 0.6 86
2019-04-17 00:00:00 10.4 6 Norte 10 Norte 0 944.9 1.6 83
2019-04-16 23:00:00 11.5 6 Norte 14 Norte 0 944.8 2 79
2019-04-16 22:00:00 12.8 6 Norte 17 Nordeste 0 944.2 1.8 75
2019-04-16 21:00:00 14.3 7 Nordeste 17 Este 0 943.3 1.2 71
2019-04-16 20:00:00 16.1 11 Nordeste 26 Nordeste 0 942.8 0.8 65
2019-04-16 19:00:00 17.8 13 Nordeste -- -- 0 942.4 -0.2 60
2019-04-16 18:00:00 20.3 18 Este -- -- 0 942.1 -1.1 49
2019-04-16 17:00:00 24.6 11 Sur 23 Sudeste 0 942 -1.7 24
2019-04-16 16:00:00 24 12 Este 24 Este 0 942.6 -1.7 24
2019-04-16 15:00:00 23.4 8 Sudeste 18 Este 0 943.2 -1.5 23
2019-04-16 14:00:00 22.1 6 Nordeste 19 Este 0 943.7 -1.2 26
2019-04-16 13:00:00 22 8 Este 20 Este 0 944.3 -0.5 24
2019-04-16 12:00:00 20 9 Nordeste 19 Este 0 944.7 0.2 32
2019-04-16 11:00:00 18.9 5 Sudeste 13 Sur 0 944.9 0.9 38
2019-04-16 10:00:00 17.4 4 Sudeste 20 Sur 0 944.8 1.3 40
2019-04-16 09:00:00 14.3 6 Oeste 15 Sudoeste 0 944.5 1.2 51
2019-04-16 08:00:00 9.5 2 Sudeste 10 Sudoeste 0 944 1 67
2019-04-16 07:00:00 10 4 Noroeste 12 Norte 0 943.5 1 63
2019-04-16 06:00:00 11.4 6 Noroeste 13 Noroeste 0 943.3 1 60
2019-04-16 05:00:00 14.3 8 Norte 22 Norte 0 943 0.3 51
2019-04-16 04:00:00 14.4 9 Noroeste 17 Noroeste 0 942.5 0.1 58
2019-04-16 03:00:00 9.4 5 Noroeste 11 Noroeste 0 942.3 0.3 81
2019-04-16 02:00:00 9.6 6 Oeste 12 Noroeste 0 942.7 1.3 87
2019-04-16 01:00:00 10 4 Oeste 8 Oeste 0 942.4 1.7 83
2019-04-16 00:00:00 11.3 3 Noroeste 11 Oeste 0 942 2.3 79
2019-04-15 23:00:00 12.6 5 Oeste 9 Oeste 0 941.4 2.3 75
2019-04-15 22:00:00 15 0 Calma 12 Nordeste 0 940.7 1.9 66
2019-04-15 21:00:00 16.7 6 Nordeste 14 Norte 0 939.7 1.2 60
2019-04-15 20:00:00 19.3 8 Nordeste 19 Nordeste 0 939.1 0.7 50
2019-04-15 19:00:00 21.5 10 Este 24 Este 0 938.8 0 42
2019-04-15 18:00:00 22.3 16 Este -- -- 0 938.5 -1 44
2019-04-15 17:00:00 23.8 7 Nordeste 26 Este 0 938.4 -1.4 40
2019-04-15 16:00:00 25.3 11 Este 23 Nordeste 0 938.8 -1.5 35
2019-04-15 15:00:00 23.7 12 Nordeste 24 Nordeste 0 939.5 -1.1 34
2019-04-15 14:00:00 24.8 12 Este 23 Este 0 939.8 -1 30
2019-04-15 13:00:00 25.1 10 Este 20 Este 0 940.3 -0.8 30
2019-04-15 12:00:00 24.4 10 Este 18 Este 0 940.6 -0.6 31
2019-04-15 11:00:00 22.3 6 Este 13 Sudoeste 0 940.8 -0.3 35
2019-04-15 10:00:00 18 8 Sudoeste 19 Oeste 0 941.1 0.1 50
2019-04-15 09:00:00 13.7 14 Oeste 23 Oeste 0 941.2 0.2 59
2019-04-15 08:00:00 11.8 12 Oeste 22 Oeste 0 941.1 -0.3 63
2019-04-15 07:00:00 12.9 10 Oeste 22 Oeste 0 941 -0.7 56
2019-04-15 06:00:00 12.4 6 Sudoeste 15 Oeste 0 941 -1 59
2019-04-15 05:00:00 11.9 7 Oeste 13 Oeste 0 941.4 -1 63
2019-04-15 04:00:00 12.7 3 Oeste 15 Oeste 0 941.7 -1 62
2019-04-15 03:00:00 14.5 10 Oeste 21 Sudoeste 0 942 -0.7 52
2019-04-15 02:00:00 14.1 15 Oeste 23 Oeste 0 942.4 -0.2 54
2019-04-15 01:00:00 15.3 7 Sudoeste 12 Oeste 0 942.7 0.4 46
2019-04-15 00:00:00 15.7 7 Oeste 14 Oeste 0 942.7 1.2 43
2019-04-14 23:00:00 17.7 11 Oeste 15 Oeste 0 942.6 2 37
2019-04-14 22:00:00 19.1 10 Oeste 20 Oeste 0 942.3 2 33
2019-04-14 21:00:00 20.4 12 Oeste 19 Oeste 0 941.5 1 30
2019-04-14 20:00:00 23.2 3 Sudeste 13 Este 0 940.6 -0.2 26
2019-04-14 19:00:00 24.5 7 Sudeste 22 Este 0 940.3 -1 21
2019-04-14 18:00:00 24.8 9 Este 18 Nordeste 0 940.5 -1.6 21
2019-04-14 17:00:00 25.3 7 Este 21 Sudeste 0 940.8 -1.9 21
2019-04-14 16:00:00 27.3 6 Sudeste 17 Sudeste 0 941.3 -2 19
2019-04-14 15:00:00 26.7 6 Sudoeste 18 Sur 0 942.1 -1.7 18
2019-04-14 14:00:00 25.4 11 Sudoeste 21 Sudoeste 0 942.7 -1.4 19
2019-04-14 13:00:00 25.1 10 Sur 29 Sudeste 0 943.3 -0.7 19
2019-04-14 12:00:00 23.8 8 Sur 19 Sur 0 943.8 -0.2 23
2019-04-14 11:00:00 22.2 7 Sur 14 Sudeste 0 944.1 0.3 27
2019-04-14 10:00:00 18.5 5 Sur 14 Sudoeste 0 944 0.4 38
2019-04-14 09:00:00 13.9 6 Sur 15 Sudoeste 0 944 0.5 50
2019-04-14 08:00:00 9.2 -- -- -- -- 0 943.8 0.1 65
2019-04-14 07:00:00 10.4 3 Noroeste 28 Sudoeste 0 943.6 0 59
2019-04-14 06:00:00 11 13 Oeste 22 Sudoeste 0 943.5 -0.2 56
2019-04-14 05:00:00 11.4 13 Oeste 24 Sudoeste 0 943.7 -0.7 52
2019-04-14 04:00:00 11.5 10 Sudoeste 27 Sudoeste 0 943.6 -1.3 51
2019-04-14 03:00:00 15.2 6 Oeste 18 Noroeste 0 943.7 -1.2 36
2019-04-14 02:00:00 15.9 8 Oeste 23 Oeste 0 944.4 -0.2 34
2019-04-14 01:00:00 13.2 10 Oeste 15 Oeste 0 944.9 0.9 46
2019-04-14 00:00:00 14.5 8 Oeste 13 Oeste 0 944.9 1.9 40
2019-04-13 23:00:00 14.6 9 Sudoeste 15 Noroeste 0 944.6 2.3 37
2019-04-13 22:00:00 16.5 5 Oeste 17 Oeste 0 944 2 29
2019-04-13 21:00:00 16.9 4 Oeste 15 Norte 0 943 0.8 27
2019-04-13 20:00:00 19.7 7 Norte 23 Norte 0 942.3 0.1 22
2019-04-13 19:00:00 21.9 5 Norte 27 Norte 0 942 -0.6 18
2019-04-13 18:00:00 22.8 6 Sudoeste 19 Sudeste 0 942.2 -0.9 15
2019-04-13 17:00:00 22.6 7 Este 25 Sudeste 0 942.2 -1.4 17
2019-04-13 16:00:00 23.5 10 Sudeste -- -- 0 942.6 -1.5 17
2019-04-13 15:00:00 22.2 -- -- -- -- 0 943.1 -1.5 18
2019-04-13 14:00:00 22.5 6 Oeste 21 Oeste 0 943.6 -0.9 16
2019-04-13 13:00:00 20.6 9 Noroeste 30 Oeste 0 944.1 -0.4 19
2019-04-13 12:00:00 19.3 13 Oeste 28 Oeste 0 944.6 0.5 23
2019-04-13 11:00:00 18.2 10 Oeste 23 Noroeste 0 944.5 0.9 26
2019-04-13 10:00:00 16.8 9 Oeste 21 Noroeste 0 944.5 1.4 28
2019-04-13 09:00:00 11.3 13 Sudoeste 21 Sudoeste 0 944.1 1.4 47
2019-04-13 08:00:00 8.5 4 Sudeste 13 Oeste 0 943.6 0.8 51
2019-04-13 07:00:00 10.5 4 Oeste 18 Noroeste 0 943.1 0.2 42
2019-04-13 06:00:00 10.9 4 Oeste 16 Oeste 0 942.7 -0.6 42
2019-04-13 05:00:00 12.1 8 Oeste 19 Noroeste 0 942.8 -0.9 38
2019-04-13 04:00:00 12.4 9 Oeste 19 Noroeste 0 942.9 -0.8 36
2019-04-13 03:00:00 11.7 6 Oeste 17 Noroeste 0 943.3 -0.2 39
2019-04-13 02:00:00 9 4 Oeste 13 Oeste 0 943.7 0.3 51
2019-04-13 01:00:00 10.3 7 Oeste 13 Oeste 0 943.7 0.9 46
2019-04-13 00:00:00 11.2 7 Oeste 12 Oeste 0 943.5 1.5 41
2019-04-12 23:00:00 11.9 4 Oeste 15 Noroeste 0 943.4 2 39
2019-04-12 22:00:00 13.7 6 Oeste 26 Norte 0 942.8 1.8 33
2019-04-12 21:00:00 14.3 4 Norte 22 Norte 0 942 1.1 32
2019-04-12 20:00:00 16.5 6 Noroeste 28 Norte 0 941.4 0.8 25
2019-04-12 19:00:00 18.1 10 Noroeste 27 Oeste 0 941 -0.1 22
2019-04-12 18:00:00 19.2 10 Norte 29 Norte 0 940.9 -0.8 20
2019-04-12 17:00:00 20.4 9 Noroeste -- -- 0 940.6 -1.5 16
2019-04-12 16:00:00 20.3 5 Nordeste 19 Oeste 0 941.1 -1.4 19
2019-04-12 15:00:00 20.9 6 Noroeste 22 Oeste 0 941.7 -1.3 19
2019-04-12 14:00:00 19.7 5 Este 19 Sudoeste 0 942.1 -0.7 21
2019-04-12 13:00:00 18.1 9 Noroeste 29 Sudoeste 0 942.5 -0.3 25
2019-04-12 12:00:00 17.1 9 Noroeste 31 Noroeste 0 943 0.1 27
2019-04-12 11:00:00 15.7 9 Noroeste 24 Oeste 0 942.8 0 30
2019-04-12 10:00:00 13.4 10 Oeste 28 Oeste 0 942.8 0.3 35
2019-04-12 09:00:00 8.4 14 Sudoeste 21 Sudoeste 0 942.9 0.4 57
2019-04-12 08:00:00 6.2 10 Oeste 19 Oeste 0 942.8 0.3 63
2019-04-12 07:00:00 6.8 7 Oeste 14 Oeste 0 942.5 -0.2 60
2019-04-12 06:00:00 7.4 9 Oeste 15 Oeste 0 942.5 -0.5 56
2019-04-12 05:00:00 6.3 5 Sur 13 Sudoeste 0 942.5 -0.6 61
2019-04-12 04:00:00 6.1 3 Oeste 11 Noroeste 0 942.7 -0.2 64
2019-04-12 03:00:00 9.1 3 Noroeste 15 Noroeste 0 943 -0.1 49
2019-04-12 02:00:00 10.1 5 Noroeste 17 Noroeste 0 943.1 0.3 44
2019-04-12 01:00:00 10.2 5 Noroeste 16 Oeste 0 942.9 0.3 40
2019-04-12 00:00:00 9.6 5 Oeste 11 Noroeste 0 943.1 1.3 45
2019-04-11 23:00:00 10.6 6 Oeste 17 Oeste 0 942.8 1.6 41
2019-04-11 22:00:00 10.5 5 Oeste 11 Oeste 0 942.6 1.5 44
2019-04-11 21:00:00 12.2 4 Noroeste 22 Noroeste 0 941.8 0.8 36
2019-04-11 20:00:00 15.1 11 Oeste 30 Nordeste 0 941.2 0.2 28
2019-04-11 19:00:00 16.5 10 Norte 22 Norte 0 941.1 -0.1 27
2019-04-11 18:00:00 17.1 10 Norte 30 Norte 0 941 -0.4 27
2019-04-11 17:00:00 16.6 10 Norte 26 Norte 0 941 -0.5 27
2019-04-11 16:00:00 18.7 8 Noroeste 31 Oeste 0 941.2 -0.7 25
2019-04-11 15:00:00 18.7 11 Noroeste 28 Oeste 0 941.4 -0.6 24
2019-04-11 14:00:00 18.4 9 Oeste -- -- 0 941.5 -0.4 29
2019-04-11 13:00:00 16.6 12 Norte 30 Norte 0 941.9 0.2 29
2019-04-11 12:00:00 16.3 7 Noroeste 24 Oeste 0 942 0.4 32
2019-04-11 11:00:00 14.8 7 Noroeste -- -- 0 941.9 0.5 38
2019-04-11 10:00:00 13 8 Norte 21 Noroeste 0 941.7 0.6 44
2019-04-11 09:00:00 10.3 12 Oeste 21 Oeste 0 941.6 0.6 52
2019-04-11 08:00:00 7.3 10 Oeste 18 Noroeste 0 941.4 0.5 65
2019-04-11 07:00:00 5.7 4 Sur 19 Oeste 0 941.1 0.2 73
2019-04-11 06:00:00 7.6 7 Oeste 17 Oeste 0 941 0.1 65
2019-04-11 05:00:00 7.9 5 Oeste 19 Oeste 0 940.9 -0.1 64
2019-04-11 04:00:00 7.8 4 Oeste 15 Noroeste 0 940.9 -0.4 65
2019-04-11 03:00:00 8.3 8 Oeste 24 Oeste 0 940.9 -0.3 63
2019-04-11 02:00:00 8.2 7 Noroeste 26 Noroeste 0 941 0 64
2019-04-11 01:00:00 8.3 10 Noroeste 27 Oeste 0 941.3 0.7 63
2019-04-11 00:00:00 8.9 12 Oeste 28 Oeste 0 941.2 0.9 60
2019-04-10 23:00:00 8.5 6 Noroeste 21 Noroeste 0 941 1.1 64
2019-04-10 22:00:00 8.7 8 Oeste 21 Oeste 0 940.6 0.7 67
2019-04-10 21:00:00 8 5 Oeste 23 Oeste 0 940.3 2.2 77
2019-04-10 20:00:00 8.2 10 Oeste -- -- 0.8 939.9 1.7 81
2019-04-10 19:00:00 8.1 -- -- -- -- 0.8 939.9 1 80
2019-04-10 18:00:00 16.3 9 Oeste 33 Oeste 0 938.1 -1.3 30
2019-04-10 17:00:00 15.2 8 Sudoeste 24 Oeste 0 938.2 -1.1 32
2019-04-10 16:00:00 15.6 14 Noroeste 36 Oeste 0 938.9 -0.5 30
2019-04-10 15:00:00 16.2 15 Norte 36 Norte 0 939.4 0 32
2019-04-10 14:00:00 15.3 14 Norte 27 Norte 0 939.3 -0.1 33
2019-04-10 13:00:00 15.4 12 Noroeste 25 Norte 0 939.4 0 33
2019-04-10 12:00:00 14 15 Norte 34 Norte 0 939.4 0.4 36
2019-04-10 11:00:00 14.8 9 Sudoeste 23 Sur 0 939.4 0.5 38
2019-04-10 10:00:00 13.7 5 Sudoeste 19 Sudoeste 0 939.4 0.6 42
2019-04-10 09:00:00 9.6 7 Sudoeste 15 Sudoeste 0 939 0.5 58
2019-04-10 08:00:00 4.7 5 Noroeste 9 Noroeste 0 938.9 0.3 77
2019-04-10 07:00:00 6.8 3 Este 19 Oeste 0 938.8 0.1 66
2019-04-10 06:00:00 9.8 9 Noroeste 32 Noroeste 0 938.5 -0.4 51
2019-04-10 05:00:00 10.4 10 Noroeste 40 Oeste 0 938.6 -1 48
2019-04-10 04:00:00 10.7 19 Oeste 37 Oeste 0 938.7 -1.2 51
2019-04-10 03:00:00 10.7 10 Oeste 33 Noroeste 0 938.9 -0.9 49
2019-04-10 02:00:00 9.9 5 Oeste 22 Oeste 0 939.6 -0.4 53
2019-04-10 01:00:00 9.7 9 Oeste 28 Oeste 0 939.9 0.5 55
2019-04-10 00:00:00 10 12 Oeste 26 Oeste 0 939.8 0.7 57
2019-04-09 23:00:00 9.9 15 Oeste 30 Oeste 0 940 1.5 63
2019-04-09 22:00:00 10.7 13 Oeste 39 Sudoeste 0 939.4 0.9 55
2019-04-09 21:00:00 12.1 12 Oeste 31 Oeste 0 939.1 0.6 46
2019-04-09 20:00:00 13.1 14 Oeste 36 Oeste 0 938.5 0.1 41
2019-04-09 19:00:00 14.2 16 Oeste 43 Noroeste 0 938.5 -0.2 37
2019-04-09 18:00:00 14.8 13 Oeste 39 Oeste 0 938.5 -0.8 37
2019-04-09 17:00:00 16.9 17 Oeste 33 Oeste 0 938.4 -1.3 31
2019-04-09 16:00:00 15.4 11 Oeste 37 Sudoeste 0 938.7 -1.5 33
2019-04-09 15:00:00 17.6 17 Sudoeste 37 Sudoeste 0 939.3 -1 26
2019-04-09 14:00:00 17.1 21 Oeste 40 Oeste 0 939.7 -0.9 31
2019-04-09 13:00:00 15.4 8 Sudoeste 32 Oeste 0 940.2 -0.3 33
2019-04-09 12:00:00 15 13 Sudoeste 25 Sudoeste 0 940.3 -0.2 34
2019-04-09 11:00:00 13.6 14 Sudoeste 32 Oeste 0 940.6 0.5 40
2019-04-09 10:00:00 13.2 10 Sudoeste 19 Sudoeste 0 940.5 0.9 44
2019-04-09 09:00:00 8.9 2 Este 5 Oeste 0 940.5 0.9 69
2019-04-09 08:00:00 4.8 4 Noroeste 8 Sudoeste 0 940.1 0.4 83
2019-04-09 07:00:00 6.6 5 Sudoeste 12 Oeste 0 939.6 -0.4 78
2019-04-09 06:00:00 5.9 4 Noroeste 8 Noroeste 0 939.6 -0.4 83
2019-04-09 05:00:00 6.9 4 Sudoeste 10 Sur 0 939.7 -0.3 78
2019-04-09 04:00:00 8.1 5 Sudoeste 8 Sudoeste 0 940 0.1 76
2019-04-09 03:00:00 8.6 5 Sudoeste 14 Sur 0 940 0.4 76
2019-04-09 02:00:00 10 12 Sudoeste 33 Oeste 0 940 0 69
2019-04-09 01:00:00 10.2 5 Oeste 15 Oeste 0 939.9 0.3 75
2019-04-09 00:00:00 11.9 8 Sudoeste 15 Sudoeste 0 939.6 0.7 68
2019-04-08 23:00:00 12.2 8 Sudoeste 24 Sudoeste 0 940 1.3 64
2019-04-08 22:00:00 13.7 15 Oeste 27 Oeste 0 939.6 1.1 52
2019-04-08 21:00:00 15 6 Sudoeste 23 Sudoeste 0 938.9 0.4 50
2019-04-08 20:00:00 16.5 9 Oeste 24 Oeste 0 938.7 -0.2 41
2019-04-08 19:00:00 17.5 8 Oeste 34 Oeste 0 938.5 -0.5 39
2019-04-08 18:00:00 17.8 20 Sudoeste 36 Sudoeste 0 938.5 -1.2 42
2019-04-08 17:00:00 16.6 11 Sudoeste 29 Sudoeste 0 938.9 -1.1 50
2019-04-08 16:00:00 18.6 12 Sudoeste 27 Sudoeste 0 939 -1.1 43
2019-04-08 15:00:00 17.6 5 Sudeste 31 Oeste 0 939.7 -0.9 40
2019-04-08 14:00:00 16.8 11 Oeste 28 Oeste 0 940 -0.7 44
2019-04-08 13:00:00 16.2 10 Oeste 24 Oeste 0 940.1 -0.4 49
2019-04-08 12:00:00 14.1 5 Sur 15 Sur 0 940.6 0 65
2019-04-08 11:00:00 12.5 10 Sudoeste 21 Sudoeste 0 940.7 0.6 69
2019-04-08 10:00:00 11.5 8 Sudoeste 15 Sur 0 940.5 0.7 75
2019-04-08 09:00:00 10 9 Sudoeste 16 Oeste 0 940.6 0.9 79
2019-04-08 08:00:00 9.2 11 Oeste 19 Oeste 0 940.1 0 80
2019-04-08 07:00:00 9.2 9 Oeste 18 Oeste 0 939.8 -0.5 81
2019-04-08 06:00:00 10.1 8 Sudoeste 20 Sudoeste 0 939.7 -0.9 76
2019-04-08 05:00:00 9.7 12 Sudoeste 23 Oeste 0 940.1 -0.9 79
2019-04-08 04:00:00 10.2 16 Sudoeste 25 Sudoeste 0 940.3 -1 76
2019-04-08 03:00:00 9.6 8 Oeste 17 Oeste 0 940.6 -0.7 83
2019-04-08 02:00:00 10.2 11 Sudoeste 26 Sudoeste 0 941 -0.3 75
2019-04-08 01:00:00 10.3 12 Sudoeste 23 Sudoeste 0 941.3 0.2 71
2019-04-08 00:00:00 9.7 8 Sur 16 Sudoeste 0 941.3 0.8 72
2019-04-07 23:00:00 10.3 7 Sudoeste 13 Sudoeste 0 941.3 1.2 66
2019-04-07 22:00:00 10.9 6 Sudoeste 12 Sudoeste 0 941.1 1.7 61
2019-04-07 21:00:00 11.9 9 Oeste 21 Oeste 0 940.5 1.6 55
2019-04-07 20:00:00 12.6 14 Oeste 28 Oeste 0 940.1 1.7 50
2019-04-07 19:00:00 13.8 11 Sudoeste 31 Sudoeste 0 939.4 1.1 43
2019-04-07 18:00:00 14.6 17 Sudoeste 28 Sudoeste 0 938.9 0.5 39
2019-04-07 17:00:00 16.1 19 Oeste 40 Oeste 0 938.4 0.3 32
2019-04-07 16:00:00 15.7 6 Noroeste 36 Oeste 0 938.3 0.6 34
2019-04-07 15:00:00 14 11 Noroeste 31 Noroeste 0 938.4 1.1 36
2019-04-07 14:00:00 13.8 12 Oeste 37 Oeste 0 938.1 1.2 39
2019-04-07 13:00:00 14.3 11 Oeste 41 Oeste 0 937.7 1.2 43
2019-04-07 12:00:00 12.5 19 Oeste 48 Oeste 0 937.3 1.9 45
2019-04-07 11:00:00 9.3 8 Este 23 Este 0 936.9 2.1 72
2019-04-07 10:00:00 7.7 8 Este 36 Oeste 0 936.5 2.4 76
2019-04-07 09:00:00 8 6 Noroeste 34 Sudoeste 0.4 935.4 1.8 69
2019-04-07 08:00:00 5.3 3 Oeste 15 Oeste 0 934.8 1 86
2019-04-07 07:00:00 5.2 7 Oeste 18 Sudoeste 0 934.1 0.3 83
2019-04-07 06:00:00 5.6 15 Oeste 32 Sudoeste 0.2 933.6 0 79
2019-04-07 05:00:00 5.4 13 Oeste 34 Sudoeste 0 933.8 -0.3 78
2019-04-07 04:00:00 6.3 13 Sudoeste 35 Oeste 0 933.8 0.2 72
2019-04-07 03:00:00 6 21 Oeste 45 Oeste 0 933.6 0.5 72
2019-04-07 02:00:00 5.7 16 Oeste 42 Oeste 0 934.1 0.6 72
2019-04-07 01:00:00 8 27 Oeste 55 Oeste 0 933.6 0.4 54
2019-04-07 00:00:00 7.2 20 Sudoeste 33 Oeste 0 933.1 0.2 58
2019-04-06 23:00:00 7.3 13 Oeste 37 Oeste 0 933.5 0.7 56
2019-04-06 22:00:00 7.4 14 Oeste 44 Sudoeste 0 933.2 1.6 58
2019-04-06 21:00:00 7.1 7 Sudoeste 25 Noroeste 0 932.9 1.7 68
2019-04-06 20:00:00 9.5 9 Oeste 28 Oeste 0 932.8 1.8 52
2019-04-06 19:00:00 10.3 15 Oeste 39 Oeste 0 931.6 0.8 50
2019-04-06 18:00:00 12.2 17 Oeste 39 Oeste 0 931.2 0 39
2019-04-06 17:00:00 13.1 10 Noroeste 52 Sudoeste 0 931 -0.8 39
2019-04-06 16:00:00 13.4 26 Sudoeste 46 Sudoeste 0 930.8 -0.7 38
2019-04-06 15:00:00 13.2 17 Sudoeste 41 Sudoeste 0 931.2 -0.2 40
2019-04-06 14:00:00 11.6 19 Sudoeste 42 Oeste 0 931.8 0.4 47
2019-04-06 13:00:00 14.9 9 Oeste 37 Oeste 0 931.5 0.6 36
2019-04-06 12:00:00 13 21 Oeste 45 Sudoeste 0 931.4 0.7 36
2019-04-06 11:00:00 11.6 6 Sudeste 31 Sudeste 0 931.4 0.9 44
2019-04-06 10:00:00 10.9 8 Sur 30 Oeste 0 930.9 1 45
2019-04-06 09:00:00 8.4 13 Oeste 29 Oeste 0 930.7 1 50
2019-04-06 08:00:00 3.4 6 Oeste 17 Oeste 0 930.5 1 77
2019-04-06 07:00:00 2.9 3 Noroeste 12 Oeste 0 929.9 0.1 81
2019-04-06 06:00:00 3.5 5 Sudoeste 11 Noroeste 0 929.7 0 81
2019-04-06 05:00:00 3.9 4 Sudoeste 9 Noroeste 0 929.5 0.3 79
2019-04-06 04:00:00 3.4 4 Oeste 10 Noroeste 0 929.8 0.4 81
2019-04-06 03:00:00 3.9 4 Noroeste 17 Sudoeste 0 929.7 0.4 75
2019-04-06 02:00:00 6.7 10 Sudoeste 32 Oeste 0 929.2 0.4 59
2019-04-06 01:00:00 6.2 6 Sudeste 24 Noroeste 0 929.4 1.1 60
2019-04-06 00:00:00 7.3 10 Sudeste 40 Oeste 0 929.3 1.4 52
2019-04-05 23:00:00 8 19 Oeste 50 Noroeste 0 928.8 1.5 44
2019-04-05 22:00:00 7 13 Sudoeste 41 Oeste 0 928.3 2.4 55
2019-04-05 21:00:00 7.1 17 Oeste 47 Oeste 0 927.9 2 54
2019-04-05 20:00:00 8.6 9 Sudoeste 29 Sudoeste 0.2 927.3 1.4 69
2019-04-05 19:00:00 11.9 13 Sudoeste 40 Sudoeste 0 925.9 -1.3 51
2019-04-05 18:00:00 10.5 17 Sudoeste 35 Sudoeste 0 925.9 -2.3 60
2019-04-05 17:00:00 10.4 13 Sudoeste 30 Sudoeste 0 925.9 -1.5 69
2019-04-05 16:00:00 9.3 5 Sudoeste 24 Oeste 0.4 927.2 0.2 82
2019-04-05 15:00:00 8.4 12 Sudoeste 40 Oeste 2 928.2 0.5 83
2019-04-05 14:00:00 12.7 23 Oeste 47 Sudoeste 0 927.4 -0.9 50
2019-04-05 13:00:00 15.2 17 Sudoeste 41 Sudoeste 0 927 -1.5 39
2019-04-05 12:00:00 15.1 18 Sudoeste 34 Sur 0 927.7 -1.4 38
2019-04-05 11:00:00 12.3 14 Sudoeste 28 Sudoeste 0 928.3 -0.8 45
2019-04-05 10:00:00 9.4 10 Sudoeste 24 Sudoeste 0 928.5 -0.5 56
2019-04-05 09:00:00 8 11 Sudoeste 20 Sudoeste 0 929.1 0.4 65
2019-04-05 08:00:00 5.2 2 Oeste 10 Sur 0 929.1 0 83
2019-04-05 07:00:00 5.3 3 Sudeste 9 Oeste 0 929 -0.2 85
2019-04-05 06:00:00 5.5 4 Oeste 14 Sudoeste 0 928.7 -1.1 83
2019-04-05 05:00:00 5.9 7 Oeste 14 Oeste 0 929.1 -0.8 82
2019-04-05 04:00:00 7.1 7 Sur 14 Oeste 0 929.2 -0.9 81
2019-04-05 03:00:00 8 7 Sudoeste 19 Oeste 0 929.8 -0.2 81
2019-04-05 02:00:00 7.9 9 Oeste 17 Oeste 0 929.9 0.1 82
2019-04-05 01:00:00 8.3 8 Oeste 20 Oeste 0 930.1 0.5 79
2019-04-05 00:00:00 8.7 6 Oeste 21 Oeste 0 930 0.8 77
2019-04-04 23:00:00 9.3 10 Sudoeste 26 Oeste 0 929.8 0.8 74
2019-04-04 22:00:00 9.3 16 Oeste 32 Oeste 0 929.6 1 72
2019-04-04 21:00:00 9.8 8 Sudoeste 27 Sudoeste 0 929.2 1 70
2019-04-04 20:00:00 11.1 14 Sudoeste 35 Sudoeste 0 929 0.6 66
2019-04-04 19:00:00 13.3 8 Sudoeste 31 Este 0 928.6 -0.5 58
2019-04-04 18:00:00 15 12 Este 27 Este 0 928.2 -1.8 44
2019-04-04 17:00:00 16.6 12 Este 23 Este 0 928.4 -2.4 30
2019-04-04 16:00:00 16.3 12 Este 24 Este 0 929.1 -2.3 27
2019-04-04 15:00:00 15.6 7 Nordeste 19 Sudeste 0 930 -1.6 29
2019-04-04 14:00:00 15.2 7 Nordeste 17 Sudeste 0 930.8 -0.3 29
2019-04-04 13:00:00 14.5 8 Sudeste 21 Este 0 931.4 0.4 28
2019-04-04 12:00:00 13 9 Nordeste 22 Este 0 931.6 0.8 28
2019-04-04 11:00:00 11.7 14 Nordeste 26 Este 0 931.1 1.1 31
2019-04-04 10:00:00 9.9 8 Sudeste 14 Este 0 931 1.5 46
2019-04-04 09:00:00 4 4 Sur 11 Noroeste 0 930.8 1.8 71
2019-04-04 08:00:00 2.5 4 Oeste 8 Noroeste 0 930 1.1 78
2019-04-04 07:00:00 3.2 3 Oeste 7 Noroeste 0 929.5 0.9 76
2019-04-04 06:00:00 4.7 4 Noroeste 9 Nordeste 0 929 0.1 71
2019-04-04 05:00:00 6.7 5 Sudoeste 9 Este 0 928.9 -0.2 60
2019-04-04 04:00:00 8.3 3 Nordeste 17 Norte 0 928.6 -0.5 54
2019-04-04 03:00:00 10 11 Norte 21 Norte 0 928.9 -0.4 52
2019-04-04 02:00:00 8.7 4 Noroeste 10 Oeste 0 929.1 -0.3 69
2019-04-04 01:00:00 9.7 3 Sudoeste 17 Oeste 0 929.1 0.2 64
2019-04-04 00:00:00 9.9 9 Oeste 15 Oeste 0 929.3 0.9 66
2019-04-03 23:00:00 11.1 5 Oeste 12 Sudoeste 0 929.4 1.3 60
2019-04-03 22:00:00 13.5 7 Sudoeste 14 Oeste 0 928.9 1 48
2019-04-03 21:00:00 14.8 4 Oeste 22 Oeste 0 928.4 0.6 44
2019-04-03 20:00:00 17.7 11 Oeste 27 Oeste 0 928.1 -0.2 30
2019-04-03 19:00:00 19.7 14 Oeste 31 Oeste 0 927.9 -1.6 22
2019-04-03 18:00:00 21.6 15 Sudoeste 40 Sudoeste 0 927.8 -2.9 21
2019-04-03 17:00:00 22.3 21 Sudoeste 39 Sudoeste 0 928.3 -3.5 16
2019-04-03 16:00:00 22.3 14 Sudoeste 32 Sudoeste 0 929.5 -3.4 30
2019-04-03 15:00:00 21.4 19 Sudoeste 33 Sudoeste 0 930.7 -3.2 29
2019-04-03 14:00:00 21.6 15 Sur 32 Sur 0 931.8 -3 30
2019-04-03 13:00:00 20.6 13 Sudoeste 25 Sudoeste 0.2 932.9 -2.6 33
2019-04-03 12:00:00 20.1 10 Sur 22 Sur 0 933.9 -2.1 38
2019-04-03 11:00:00 17.2 11 Sudoeste 20 Sur 0 934.8 -1.4 43
2019-04-03 10:00:00 13.8 11 Sudoeste 18 Sudoeste 0 935.5 -1 56
2019-04-03 09:00:00 10.4 11 Oeste 22 Oeste 0 936 -0.7 67
2019-04-03 08:00:00 7.8 11 Oeste 20 Oeste 0 936.2 -1 76
2019-04-03 07:00:00 6.1 6 Noroeste 24 Oeste 0 936.5 -1.4 84
2019-04-03 06:00:00 7 10 Oeste 19 Oeste 0 936.7 -2.1 82
2019-04-03 05:00:00 6.5 3 Oeste 22 Oeste 0 937.2 -2.2 84
2019-04-03 04:00:00 7.9 14 Oeste 22 Oeste 0 937.9 -2 80
2019-04-03 03:00:00 8.7 15 Oeste 22 Oeste 0 938.8 -1.3 77
2019-04-03 02:00:00 9 6 Oeste 12 Oeste 0 939.4 -0.7 78
2019-04-03 01:00:00 9.1 4 Noroeste 11 Oeste 0 939.9 0.3 79
2019-04-03 00:00:00 9.9 6 Noroeste 12 Oeste 0 940.1 1 73
2019-04-02 23:00:00 12 10 Oeste 16 Oeste 0 940.1 1.5 70
2019-04-02 22:00:00 12.5 8 Oeste 14 Oeste 0 939.6 1.2 72
2019-04-02 21:00:00 12.8 4 Noroeste 11 Oeste 0 939.1 0.4 73
2019-04-02 20:00:00 15.3 4 Noroeste 6 Noroeste 0 938.6 -0.8 66
2019-04-02 19:00:00 17.3 3 Nordeste 8 Oeste 0 938.4 -1.8 47
2019-04-02 18:00:00 17.9 6 Oeste 13 Sudoeste 0 938.7 -2.1 44
2019-04-02 17:00:00 17.6 4 Este 13 Sudeste 0 939.4 -2 50
2019-04-02 16:00:00 16.1 4 Noroeste 11 Sur 0 940.2 -1.6 56
2019-04-02 15:00:00 15.1 5 Nordeste 15 Noroeste 0.2 940.8 -1.3 62
2019-04-02 14:00:00 14.1 3 Oeste 22 Norte 0 941.4 -0.6 70
2019-04-02 13:00:00 16.4 7 Este 18 Este 0.2 941.8 -0.1 58
2019-04-02 12:00:00 16.7 6 Este 16 Este 0 942.1 0.3 56
2019-04-02 11:00:00 14.3 3 Oeste 13 Oeste 0 942 0.6 63
2019-04-02 10:00:00 10.9 7 Sudoeste 19 Oeste 0 941.9 0.6 83
2019-04-02 09:00:00 8.4 3 Noroeste 11 Oeste 0 941.8 0.4 91
2019-04-02 08:00:00 6.6 2 Noroeste 13 Oeste 0 941.4 -0.3 91
2019-04-02 07:00:00 7.1 8 Oeste 18 Oeste 0 941.3 -0.7 92
2019-04-02 06:00:00 7.2 7 Oeste 14 Noroeste 0 941.4 -0.8 92
2019-04-02 05:00:00 7.7 5 Sudoeste 8 Sudoeste 0 941.7 -0.8 92
2019-04-02 04:00:00 8.5 3 Sudoeste 6 Sudoeste 0 942 -0.5 92
2019-04-02 03:00:00 9.6 3 Oeste 6 Oeste 0 942.2 -0.2 92
2019-04-02 02:00:00 10 2 Nordeste 8 Este 0 942.5 0 92
2019-04-02 01:00:00 10.3 4 Oeste 7 Oeste 0.2 942.5 0.7 91
2019-04-02 00:00:00 10.5 6 Oeste 13 Oeste 2.2 942.4 1.5 91
2019-04-01 23:00:00 10.8 4 Oeste 14 Sudoeste 2 942.5 2.1 90
2019-04-01 22:00:00 10.9 5 Oeste 11 Oeste 0.2 941.8 2 90
2019-04-01 21:00:00 10.7 3 Oeste 9 Sur 0 940.9 1.5 90
2019-04-01 20:00:00 11.1 4 Oeste 17 Oeste 4.6 940.4 1.6 89
2019-04-01 19:00:00 10.9 6 Oeste 19 Noroeste 2.6 939.8 0.5 86
2019-04-01 18:00:00 14.6 6 Sudeste 27 Este 0 939.4 -0.3 73
2019-04-01 17:00:00 17.6 10 Este 22 Este 0 938.8 -1.6 54
2019-04-01 16:00:00 16.7 9 Este 20 Nordeste 0 939.3 -1.3 54
2019-04-01 15:00:00 17.2 10 Nordeste 21 Nordeste 0 939.7 -1 53
2019-04-01 14:00:00 16.7 11 Este 17 Nordeste 0 940.4 0 60
2019-04-01 13:00:00 15.9 10 Este 18 Este 0 940.6 0.9 62
2019-04-01 12:00:00 16 7 Sudeste 13 Este 0 940.7 1.1 63
2019-04-01 11:00:00 13.7 5 Sudeste 10 Sudeste 0 940.4 1.5 79
2019-04-01 10:00:00 10.6 3 Nordeste 5 Nordeste 0 939.7 1.2 91
2019-04-01 09:00:00 9.8 2 Noroeste 4 Sur 0 939.6 1.1 92
2019-04-01 08:00:00 9.3 3 Noroeste 8 Este 0 938.9 0.5 92
2019-04-01 07:00:00 9.4 0 Calma 3 Noroeste 0.2 938.5 0 92
2019-04-01 06:00:00 9.3 0 Calma 3 Noroeste 0 938.5 -0.2 92
2019-04-01 05:00:00 9.4 2 Oeste 6 Oeste 0 938.4 -0.4 92
2019-04-01 04:00:00 9.5 4 Sudoeste 6 Sudoeste 0 938.5 -0.3 92
2019-04-01 03:00:00 9.6 4 Sudoeste 5 Sudoeste 0 938.7 -0.2 92
2019-04-01 02:00:00 9.5 4 Sudoeste 8 Norte 0 938.8 0 92
2019-04-01 01:00:00 9.4 4 Norte 9 Nordeste 0.2 938.8 0.6 92
2019-04-01 00:00:00 9.5 0 Calma 8 Norte 0 938.9 1.5 91
2019-03-31 23:00:00 9.5 4 Norte 16 Nordeste 0.4 938.8 1.7 91
2019-03-31 22:00:00 9.8 3 Nordeste 17 Nordeste 0 938.2 1.2 90
2019-03-31 21:00:00 9.7 5 Nordeste 12 Nordeste 0 937.4 0.4 89
2019-03-31 20:00:00 10 7 Nordeste 14 Este 0.2 937.1 0.1 88
2019-03-31 19:00:00 10.1 7 Nordeste 18 Nordeste 0.4 937 -0.4 86
2019-03-31 18:00:00 10.5 10 Nordeste 19 Nordeste 0 937 -0.8 82
2019-03-31 17:00:00 10.5 8 Nordeste 18 Nordeste 0 937 -1.7 83
2019-03-31 16:00:00 10 11 Nordeste 28 Nordeste 0 937.4 -2 85
2019-03-31 15:00:00 10 11 Nordeste 27 Nordeste 0.2 937.8 -1.9 84
2019-03-31 14:00:00 9.1 7 Nordeste 12 Este 0.4 938.7 -1 88
2019-03-31 13:00:00 8.9 4 Sudoeste 7 Oeste 1.4 939.4 -0.3 90
2019-03-31 12:00:00 8.5 4 Sur 10 Sudeste 0.4 939.7 -0.4 90
2019-03-31 11:00:00 7.5 4 Este 15 Este 0.4 939.7 -0.1 90
2019-03-31 10:00:00 6.8 7 Este 17 Nordeste 0.2 939.7 0 90
2019-03-31 09:00:00 6.6 8 Nordeste 17 Nordeste 1.2 940.1 0 90
2019-03-31 08:00:00 6.9 5 Nordeste 13 Nordeste 1.4 939.8 -0.9 91
2019-03-31 07:00:00 7.1 6 Este 12 Este 1.4 939.7 -2 89
2019-03-31 06:00:00 7.5 3 Sur 9 Norte 0.2 940.1 -2.6 88
2019-03-31 05:00:00 7.7 5 Norte 8 Norte 0.4 940.7 -2.7 86
2019-03-31 03:00:00 8.8 4 Este 9 Este 0 942.7 -1 76
2019-03-31 01:00:00 8.6 2 Noroeste 8 Sur 0 943.4 -0.5 76
2019-03-31 00:00:00 8.4 0 Calma 11 Noroeste 0 943.6 -0.3 77
2019-03-30 23:00:00 8.1 6 Norte 12 Norte 0 943.7 0.2 80
2019-03-30 22:00:00 8.8 6 Norte 17 Nordeste 0 943.9 0.4 78
2019-03-30 21:00:00 9.4 7 Norte 17 Este 0 943.9 0.7 72
2019-03-30 20:00:00 10.9 9 Nordeste 19 Nordeste 0 943.5 0.3 61
2019-03-30 19:00:00 12.5 10 Este 22 Este 0 943.5 0.4 51
2019-03-30 18:00:00 14 12 Este 23 Nordeste 0 943.2 -0.6 47
2019-03-30 17:00:00 14.9 14 Este 26 Nordeste 0 943.2 -1.4 46
2019-03-30 16:00:00 16 11 Este 27 Este 0 943.1 -2.6 43
2019-03-30 15:00:00 16.4 12 Este 26 Este 0 943.8 -2.9 41
2019-03-30 14:00:00 15.8 13 Este 23 Nordeste 0 944.6 -2.9 44
2019-03-30 13:00:00 15.3 9 Este 22 Este 0 945.7 -2.1 48
2019-03-30 12:00:00 12.4 8 Nordeste 17 Este 0 946.7 -1.1 57
2019-03-30 11:00:00 11.6 5 Este -- -- 0 947.5 -0.1 58
2019-03-30 10:00:00 8.4 3 Este 6 Sudeste 0 947.8 0.5 73
2019-03-30 09:00:00 6.7 2 Noroeste 9 Sudeste 0 947.8 0.5 73
2019-03-30 08:00:00 5.4 4 Sudoeste 8 Este 0 947.6 0.2 77
2019-03-30 07:00:00 4.7 3 Oeste 9 Este 0 947.3 -0.4 81
2019-03-30 06:00:00 4 3 Oeste 13 Oeste 0 947.3 -1.2 83
2019-03-30 05:00:00 3.2 4 Sudoeste 6 Sudoeste 0 947.4 -1.8 89
2019-03-30 04:00:00 3 3 Noroeste 8 Sudoeste 0 947.7 -1.9 87
2019-03-30 03:00:00 3.8 0 Calma 8 Sudoeste 0 948.5 -1.6 83
2019-03-30 02:00:00 4.6 4 Oeste 12 Noroeste 0 949.2 -1 81
2019-03-30 01:00:00 4.6 4 Noroeste 12 Noroeste 0 949.6 -0.6 77
2019-03-30 00:00:00 5.2 6 Noroeste 11 Noroeste 0 950.1 0.4 70
2019-03-29 23:00:00 5.4 6 Noroeste 11 Nordeste 0 950.2 1.1 77
2019-03-29 22:00:00 5.6 5 Noroeste 9 Norte 0 950.2 1.6 75
2019-03-29 21:00:00 6.9 6 Norte 11 Nordeste 0 949.7 1.5 70
2019-03-29 20:00:00 9.5 6 Nordeste 22 Este 0 949.1 0.8 63
2019-03-29 19:00:00 11.1 12 Este 23 Este 0 948.6 0.1 57
2019-03-29 18:00:00 12.4 14 Este 27 Este 0 948.2 -0.7 51
2019-03-29 17:00:00 13.6 12 Sudeste 23 Este 0 948.3 -1.5 46
2019-03-29 16:00:00 14 13 Este 28 Este 0 948.5 -1.8 47
2019-03-29 15:00:00 15 13 Este 27 Este 0 948.9 -2 42
2019-03-29 14:00:00 14 15 Sudeste 30 Este 0 949.8 -1.7 40
2019-03-29 13:00:00 13.5 15 Este 30 Este 0 950.3 -1.1 48
2019-03-29 12:00:00 11.9 14 Este 27 Este 0 950.9 -0.3 54
2019-03-29 11:00:00 11.4 8 Este 17 Este 0 951.5 0.3 60
2019-03-29 10:00:00 10.8 4 Este 13 Este 0 951.4 0.4 59
2019-03-29 09:00:00 7.9 2 Este 13 Oeste 0 951.2 0.7 58
2019-03-29 08:00:00 3.9 5 Oeste 16 Sudoeste 0 951.2 0.7 70
2019-03-29 07:00:00 3.1 11 Sudoeste 16 Sudoeste 0 951 0.2 71
2019-03-29 06:00:00 -0.4 4 Oeste 12 Oeste 0 950.5 -0.4 78
2019-03-29 05:00:00 -0.3 4 Oeste 18 Oeste 0 950.5 -0.8 78
2019-03-29 04:00:00 0 4 Oeste 17 Sudoeste 0 950.8 -0.5 77
2019-03-29 03:00:00 1.8 5 Oeste 19 Oeste 0 950.9 -0.4 68
2019-03-29 02:00:00 3.1 12 Oeste 17 Oeste 0 951.3 -0.3 63
2019-03-29 01:00:00 2.6 4 Oeste 9 Oeste 0 951.3 -0.4 74
2019-03-29 00:00:00 4.6 3 Oeste 12 Sudoeste 0 951.3 -0.2 68
2019-03-28 23:00:00 5.4 5 Oeste 12 Oeste 0 951.6 0.8 63
2019-03-28 22:00:00 7.1 7 Noroeste 11 Noroeste 0 951.7 1.3 58
2019-03-28 21:00:00 8.4 3 Noroeste 15 Este 0 951.5 1.5 53
2019-03-28 20:00:00 10.5 7 Este 19 Este 0 950.8 1 42
2019-03-28 19:00:00 12.4 12 Este 24 Este 0 950.4 0.5 27
2019-03-28 18:00:00 14.1 12 Este 31 Sudeste 0 950 -0.6 19
2019-03-28 17:00:00 15.2 14 Este 27 Este 0 949.8 -1.2 18
2019-03-28 16:00:00 16 12 Este 28 Este 0 949.9 -1.4 18
2019-03-28 15:00:00 16.1 15 Este 41 Sudeste 0 950.6 -1.4 16
2019-03-28 14:00:00 16.8 14 Este 33 Nordeste 0 951 -1.4 17
2019-03-28 13:00:00 16.1 13 Este 29 Este 0 951.3 -1.1 20
2019-03-28 12:00:00 15.6 9 Este 20 Nordeste 0 952 -0.1 21
2019-03-28 11:00:00 14.3 6 Este 13 Este 0 952.4 0.5 20
2019-03-28 10:00:00 12.3 5 Este 9 Nordeste 0 952.4 0.8 33
2019-03-28 09:00:00 8 7 Sudoeste 16 Oeste 0 952.1 0.9 33
2019-03-28 08:00:00 2.7 10 Oeste 21 Sudoeste 0 951.9 1 45
2019-03-28 07:00:00 0 10 Oeste 19 Oeste 0 951.6 0.6 56
2019-03-28 06:00:00 -0.7 4 Oeste 18 Oeste 0 951.2 0 66
2019-03-28 05:00:00 1.1 9 Sur 18 Sudoeste 0 950.9 -0.5 55
2019-03-28 04:00:00 1.3 10 Sudoeste 20 Oeste 0 951 -0.5 56
2019-03-28 03:00:00 2 12 Oeste 21 Oeste 0 951.2 -0.2 53
2019-03-28 02:00:00 2.1 6 Oeste 14 Oeste 0 951.4 0.5 58
2019-03-28 01:00:00 3.1 4 Oeste 16 Oeste 0 951.5 1 56
2019-03-28 00:00:00 3.9 6 Oeste 13 Noroeste 0 951.4 1.3 41
2019-03-27 23:00:00 3.8 4 Oeste 14 Noroeste 0 950.9 1.7 45
2019-03-27 22:00:00 5.4 6 Noroeste 9 Noroeste 0 950.5 2.1 53
2019-03-27 21:00:00 6.9 4 Noroeste 11 Norte 0 950.1 2.6 57
2019-03-27 20:00:00 9.7 5 Nordeste 24 Este 0 949.2 2.1 49
2019-03-27 19:00:00 11.7 12 Este 24 Este 0 948.4 1.2 43
2019-03-27 18:00:00 13.8 15 Este 27 Este 0 947.5 0.1 33
2019-03-27 17:00:00 15.2 10 Este 25 Este 0 947.1 -0.9 26
2019-03-27 16:00:00 15.9 8 Este 24 Este 0 947.2 -1.2 27
2019-03-27 15:00:00 16.1 12 Este 24 Nordeste 0 947.4 -1.3 28
2019-03-27 14:00:00 15.7 8 Nordeste 31 Este 0 948 -1 29
2019-03-27 13:00:00 14.9 12 Este 29 Nordeste 0 948.4 -0.4 29
2019-03-27 12:00:00 14.2 9 Este 30 Este 0 948.7 0.2 33
2019-03-27 11:00:00 12.4 13 Este 30 Este 0 949 0.5 38
2019-03-27 10:00:00 12.1 6 Este 15 Nordeste 0 948.8 0.7 38
2019-03-27 09:00:00 9.3 4 Norte 12 Nordeste 0 948.5 0.7 51
2019-03-27 08:00:00 3.3 3 Este 15 Sudoeste 0 948.5 0.8 75
2019-03-27 07:00:00 0.5 3 Nordeste 13 Oeste 0 948.1 0.3 85
2019-03-27 06:00:00 1 3 Sudoeste 11 Oeste 0 947.8 -0.3 80
2019-03-27 05:00:00 1.3 6 Oeste 13 Oeste 0 947.7 -0.6 80
2019-03-27 04:00:00 1.7 3 Oeste 12 Oeste 0 947.8 -0.9 78
2019-03-27 03:00:00 3.2 3 Oeste 14 Norte 0 948.1 -0.2 74
2019-03-27 02:00:00 5.3 6 Norte 13 Norte 0 948.3 0.8 76
2019-03-27 01:00:00 6.1 6 Nordeste 14 Nordeste 0 948.7 1.5 83
2019-03-27 00:00:00 6.2 5 Norte 13 Nordeste 0 948.3 1.8 80
2019-03-26 23:00:00 6.6 6 Norte 12 Nordeste 0 947.5 1.9 76
2019-03-26 22:00:00 8.1 8 Este 18 Nordeste 0 947.2 2.2 73
2019-03-26 21:00:00 9.5 7 Este 19 Este 0 946.5 2.2 74
2019-03-26 20:00:00 10.4 11 Este 26 Nordeste 0 945.6 1.7 67
2019-03-26 19:00:00 11.6 11 Este 25 Este 0 945 1.4 66
2019-03-26 18:00:00 12.9 11 Este 30 Sudeste 0 944.3 0.5 62
2019-03-26 17:00:00 14.4 16 Este 38 Este 0 943.9 -0.2 56
2019-03-26 16:00:00 15.9 16 Este 32 Este 0 943.6 -1 48
2019-03-26 15:00:00 17.4 14 Este 29 Sudeste 0 943.8 -1.2 41
2019-03-26 14:00:00 17.9 13 Este 29 Este 0 944.1 -1.2 36
2019-03-26 13:00:00 18.2 13 Este 31 Este 0 944.6 -0.4 29
2019-03-26 12:00:00 16.8 10 Este 28 Nordeste 0 945 0.5 30
2019-03-26 11:00:00 15.8 9 Nordeste 22 Nordeste 0 945.3 1.4 32
2019-03-26 10:00:00 14.2 10 Este 19 Este 0 945 1.6 35
2019-03-26 09:00:00 9.9 3 Sudeste 9 Sur 0 944.5 1.4 48
2019-03-26 08:00:00 5.4 5 Oeste 17 Sudoeste 0 943.9 1.3 60
2019-03-26 07:00:00 2.4 4 Oeste 12 Oeste 0 943.4 0.7 71
2019-03-26 06:00:00 2.8 6 Oeste 18 Oeste 0 943.1 0.1 67
2019-03-26 05:00:00 3.1 2 Sudoeste 12 Oeste 0 942.6 -0.9 67
2019-03-26 04:00:00 4.6 8 Oeste 20 Oeste 0 942.7 -1 60
2019-03-26 03:00:00 3.5 5 Oeste 10 Sudoeste 0 943 -0.7 68
2019-03-26 02:00:00 5.4 5 Oeste 22 Oeste 0 943.5 -0.2 61
2019-03-26 01:00:00 7.3 14 Oeste 22 Oeste 0 943.7 0.1 56
2019-03-26 00:00:00 7.7 4 Sudeste 15 Sudoeste 0 943.7 0.2 55
2019-03-25 23:00:00 7.6 3 Sur 14 Oeste 0 943.7 0.7 58
2019-03-25 22:00:00 9.9 6 Oeste 10 Oeste 0 943.6 0.9 47
2019-03-25 21:00:00 10.9 5 Noroeste 11 Norte 0 943.5 1.2 45
2019-03-25 20:00:00 13.8 7 Nordeste 14 Nordeste 0 943 0.6 35
2019-03-25 19:00:00 16.6 7 Este 18 Sudeste 0 942.7 -0.2 29
2019-03-25 18:00:00 18.1 10 Este 24 Este 0 942.3 -1.3 26
2019-03-25 17:00:00 19.2 9 Sudeste 22 Este 0 942.4 -2.2 24
2019-03-25 16:00:00 20.1 9 Este 25 Sudeste 0 942.9 -2.6 23
2019-03-25 15:00:00 20.6 7 Sudeste 27 Este 0 943.6 -2.5 23
2019-03-25 14:00:00 20.2 11 Este 24 Este 0 944.6 -1.9 24
2019-03-25 13:00:00 19.6 9 Este 21 Nordeste 0 945.5 -1 24
2019-03-25 12:00:00 18.7 8 Nordeste 22 Este 0 946.1 -0.3 26
2019-03-25 11:00:00 17.3 10 Nordeste 20 Este 0 946.5 0.1 25
2019-03-25 10:00:00 15.8 3 Este 9 Sudeste 0 946.5 0.5 34
2019-03-25 09:00:00 12.3 4 Sudeste 13 Oeste 0 946.4 0.3 47
2019-03-25 08:00:00 5.6 9 Oeste 16 Oeste 0 946.4 0.5 61
2019-03-25 07:00:00 3.2 4 Oeste 15 Oeste 0 946 -0.2 70
2019-03-25 06:00:00 3.4 5 Oeste 15 Oeste 0 946.1 -0.6 71
2019-03-25 05:00:00 3.5 4 Oeste 13 Sudoeste 0 945.9 -1.1 73
2019-03-25 04:00:00 3.2 3 Oeste 8 Oeste 0 946.2 -1.1 75
2019-03-25 03:00:00 4.7 3 Oeste 14 Sudoeste 0 946.7 -0.9 68
2019-03-25 02:00:00 5.3 4 Sudoeste 13 Sudoeste 0 947 -0.9 65
2019-03-25 01:00:00 5.9 5 Sudoeste 8 Sudoeste 0 947.3 -0.6 64
2019-03-25 00:00:00 8.6 7 Noroeste 13 Oeste 0 947.6 -0.1 54